createdAt,value
2018-03-11T00:00:48.866Z,95.40
2018-03-11T00:03:16.447Z,95.60
2018-03-11T00:05:44.030Z,95.50
2018-03-11T00:08:11.651Z,95.60
2018-03-11T00:10:39.273Z,95.70
2018-03-11T00:13:06.867Z,96.00
2018-03-11T00:15:35.217Z,95.90
2018-03-11T00:18:02.782Z,95.90
2018-03-11T00:20:31.170Z,96.20
2018-03-11T00:22:58.761Z,96.20
2018-03-11T00:25:27.111Z,96.00
2018-03-11T00:27:54.673Z,96.00
2018-03-11T00:30:22.248Z,96.10
2018-03-11T00:32:49.820Z,96.20
2018-03-11T00:35:17.415Z,96.30
2018-03-11T00:37:44.984Z,96.20
2018-03-11T00:40:12.580Z,96.20
2018-03-11T00:42:40.163Z,96.20
2018-03-11T00:45:07.780Z,96.30
2018-03-11T00:47:35.358Z,96.40
2018-03-11T00:50:03.887Z,96.40
2018-03-11T00:52:31.496Z,96.60
2018-03-11T00:54:59.088Z,96.50
2018-03-11T00:57:27.695Z,96.50
2018-03-11T00:59:55.275Z,96.50
2018-03-11T01:02:22.853Z,96.70
2018-03-11T01:04:51.193Z,96.80
2018-03-11T01:07:18.770Z,96.60
2018-03-11T01:09:46.352Z,96.60
2018-03-11T01:12:13.959Z,96.80
2018-03-11T01:14:41.566Z,96.80
2018-03-11T01:17:09.186Z,96.80
2018-03-11T01:19:36.780Z,96.70
2018-03-11T01:22:04.384Z,96.60
2018-03-11T01:24:31.974Z,96.50
2018-03-11T01:27:00.342Z,96.50
2018-03-11T01:29:28.713Z,96.20
2018-03-11T01:31:57.170Z,97.00
2018-03-11T01:34:24.765Z,96.70
2018-03-11T01:36:52.345Z,96.80
2018-03-11T01:39:20.683Z,97.00
2018-03-11T01:41:48.244Z,97.00
2018-03-11T01:44:15.850Z,97.00
2018-03-11T01:46:43.422Z,97.40
2018-03-11T01:49:11.757Z,97.10
2018-03-11T01:51:39.346Z,97.10
2018-03-11T01:54:06.935Z,96.90
2018-03-11T01:56:34.530Z,97.00
2018-03-11T01:59:02.116Z,97.20
2018-03-11T02:01:29.671Z,97.10
2018-03-11T02:03:57.248Z,97.40
2018-03-11T02:06:25.407Z,97.00
2018-03-11T02:08:52.976Z,97.10
2018-03-11T02:11:20.563Z,97.10
2018-03-11T02:13:48.157Z,97.00
2018-03-11T02:16:15.754Z,96.90
2018-03-11T02:18:43.341Z,96.90
2018-03-11T02:21:13.615Z,96.70
2018-03-11T02:23:41.901Z,96.70
2018-03-11T02:26:09.479Z,96.70
2018-03-11T02:28:37.057Z,96.80
2018-03-11T02:31:04.632Z,96.90
2018-03-11T02:33:32.235Z,96.80
2018-03-11T02:35:59.796Z,96.80
2018-03-11T02:38:28.214Z,97.20
2018-03-11T02:40:56.552Z,97.30
2018-03-11T02:43:24.128Z,97.30
2018-03-11T02:45:51.727Z,97.30
2018-03-11T02:48:19.308Z,97.30
2018-03-11T02:50:46.940Z,97.20
2018-03-11T02:53:14.531Z,96.60
2018-03-11T02:55:42.124Z,96.50
2018-03-11T02:58:09.693Z,96.40
2018-03-11T03:00:37.310Z,96.20
2018-03-11T03:03:04.930Z,96.10
2018-03-11T03:05:32.497Z,96.10
2018-03-11T03:08:00.089Z,96.10
2018-03-11T03:10:27.677Z,96.00
2018-03-11T03:12:56.032Z,95.90
2018-03-11T03:15:23.631Z,95.90
2018-03-11T03:17:51.998Z,95.90
2018-03-11T03:20:19.599Z,95.90
2018-03-11T03:22:47.187Z,96.00
2018-03-11T03:25:14.769Z,96.10
2018-03-11T03:27:42.328Z,96.20
2018-03-11T03:30:09.915Z,96.20
2018-03-11T03:32:37.488Z,96.30
2018-03-11T03:35:05.073Z,96.20
2018-03-11T03:37:33.438Z,96.30
2018-03-11T03:40:01.008Z,96.30
2018-03-11T03:42:29.341Z,96.30
2018-03-11T03:44:56.923Z,96.20
2018-03-11T03:47:24.513Z,96.20
2018-03-11T03:49:52.098Z,96.20
2018-03-11T03:52:19.739Z,96.20
2018-03-11T03:54:47.327Z,96.10
2018-03-11T03:57:15.735Z,96.10
2018-03-11T03:59:43.331Z,96.10
2018-03-11T04:02:10.945Z,96.10
2018-03-11T04:04:39.278Z,96.10
2018-03-11T04:07:06.915Z,96.10
2018-03-11T04:09:34.510Z,96.20
2018-03-11T04:12:02.101Z,96.30
2018-03-11T04:14:29.704Z,96.30
2018-03-11T04:16:57.306Z,96.40
2018-03-11T04:19:24.878Z,96.40
2018-03-11T04:21:52.444Z,96.40
2018-03-11T04:24:20.040Z,96.50
2018-03-11T04:26:48.390Z,96.30
2018-03-11T04:29:15.990Z,96.30
2018-03-11T04:31:44.350Z,96.30
2018-03-11T04:34:11.959Z,96.30
2018-03-11T04:36:39.551Z,96.20
2018-03-11T04:39:07.179Z,96.20
2018-03-11T04:41:34.775Z,96.20
2018-03-11T04:44:02.359Z,96.20
2018-03-11T04:46:29.965Z,96.10
2018-03-11T04:48:58.321Z,96.10
2018-03-11T04:51:25.922Z,96.10
2018-03-11T04:53:53.492Z,95.90
2018-03-11T04:56:21.080Z,95.90
2018-03-11T04:58:49.419Z,95.90
2018-03-11T05:01:17.767Z,95.90
2018-03-11T05:03:45.348Z,95.90
2018-03-11T05:06:12.939Z,95.90
2018-03-11T05:08:41.289Z,95.90
2018-03-11T05:11:08.885Z,95.90
2018-03-11T05:13:37.228Z,96.00
2018-03-11T05:16:04.817Z,96.00
2018-03-11T05:18:32.399Z,96.10
2018-03-11T05:21:00.850Z,96.10
2018-03-11T05:23:28.437Z,96.10
2018-03-11T05:25:56.037Z,96.10
2018-03-11T05:28:23.614Z,96.10
2018-03-11T05:30:51.222Z,96.20
2018-03-11T05:33:18.810Z,96.20
2018-03-11T05:35:47.299Z,96.20
2018-03-11T05:38:15.666Z,96.10
2018-03-11T05:40:43.250Z,96.10
2018-03-11T05:43:10.865Z,96.10
2018-03-11T05:45:38.467Z,96.00
2018-03-11T05:48:06.849Z,95.90
2018-03-11T05:50:35.184Z,95.90
2018-03-11T05:53:02.765Z,95.90
2018-03-11T05:55:30.332Z,95.80
2018-03-11T05:57:57.936Z,95.70
2018-03-11T06:00:26.300Z,95.60
2018-03-11T06:02:53.879Z,95.60
2018-03-11T06:05:22.270Z,95.60
2018-03-11T06:07:49.861Z,95.60
2018-03-11T06:10:17.467Z,95.60
2018-03-11T06:12:45.091Z,95.60
2018-03-11T06:15:12.687Z,95.60
2018-03-11T06:17:40.270Z,95.70
2018-03-11T06:20:08.642Z,95.60
2018-03-11T06:22:36.258Z,95.50
2018-03-11T06:25:03.860Z,95.50
2018-03-11T06:27:31.528Z,95.60
2018-03-11T06:29:59.132Z,95.90
2018-03-11T06:32:27.530Z,95.50
2018-03-11T06:34:55.906Z,95.40
2018-03-11T06:37:24.280Z,95.40
2018-03-11T06:39:52.633Z,95.40
2018-03-11T06:42:20.197Z,95.40
2018-03-11T06:44:47.807Z,95.40
2018-03-11T06:47:16.189Z,95.40
2018-03-11T06:49:43.807Z,95.40
2018-03-11T06:52:11.483Z,95.40
2018-03-11T06:54:39.921Z,95.50
2018-03-11T06:57:07.528Z,95.50
2018-03-11T06:59:35.119Z,95.40
2018-03-11T07:02:03.518Z,95.40
2018-03-11T07:04:31.876Z,95.30
2018-03-11T07:06:59.557Z,95.30
2018-03-11T07:09:27.933Z,95.30
2018-03-11T07:11:55.519Z,95.30
2018-03-11T07:14:23.876Z,95.30
2018-03-11T07:16:51.463Z,95.30
2018-03-11T07:19:19.076Z,95.10
2018-03-11T07:21:46.682Z,95.10
2018-03-11T07:24:15.040Z,95.00
2018-03-11T07:26:42.763Z,95.00
2018-03-11T07:29:10.353Z,95.00
2018-03-11T07:31:37.949Z,94.90
2018-03-11T07:34:05.587Z,94.90
2018-03-11T07:36:33.186Z,94.80
2018-03-11T07:39:00.811Z,94.70
2018-03-11T07:41:28.465Z,94.60
2018-03-11T07:43:56.064Z,94.60
2018-03-11T07:46:23.695Z,94.60
2018-03-11T07:48:51.311Z,94.60
2018-03-11T07:51:18.938Z,94.60
2018-03-11T07:53:46.545Z,94.60
2018-03-11T07:56:14.145Z,94.50
2018-03-11T07:58:41.781Z,94.50
2018-03-11T08:01:09.395Z,94.30
2018-03-11T08:03:36.980Z,94.20
2018-03-11T08:06:04.709Z,94.20
2018-03-11T08:08:32.332Z,94.00
2018-03-11T08:11:00.668Z,94.10
2018-03-11T08:13:28.240Z,94.00
2018-03-11T08:15:55.829Z,93.80
2018-03-11T08:18:23.400Z,93.70
2018-03-11T08:20:50.969Z,93.60
2018-03-11T08:23:18.568Z,93.60
2018-03-11T08:25:46.935Z,93.20
2018-03-11T08:28:15.289Z,93.40
2018-03-11T08:30:42.878Z,93.30
2018-03-11T08:33:11.257Z,93.20
2018-03-11T08:35:38.866Z,93.20
2018-03-11T08:38:06.465Z,93.20
2018-03-11T08:40:34.039Z,93.20
2018-03-11T08:43:01.624Z,93.00
2018-03-11T08:45:30.002Z,92.40
2018-03-11T08:47:58.386Z,92.10
2018-03-11T08:50:26.822Z,92.10
2018-03-11T08:52:54.479Z,92.30
2018-03-11T08:55:22.066Z,92.20
2018-03-11T08:57:49.742Z,92.30
2018-03-11T09:00:17.358Z,92.10
2018-03-11T09:02:45.725Z,92.70
2018-03-11T09:05:14.095Z,92.70
2018-03-11T09:07:41.723Z,92.70
2018-03-11T09:10:09.359Z,92.90
2018-03-11T09:12:37.701Z,93.10
2018-03-11T09:15:05.276Z,93.00
2018-03-11T09:17:32.875Z,93.40
2018-03-11T09:20:00.517Z,93.30
2018-03-11T09:22:28.132Z,93.30
2018-03-11T09:24:55.730Z,93.30
2018-03-11T09:27:23.323Z,93.50
2018-03-11T09:29:51.686Z,93.50
2018-03-11T09:32:19.329Z,93.40
2018-03-11T09:34:46.920Z,93.30
2018-03-11T09:37:14.520Z,93.60
2018-03-11T09:39:42.164Z,93.60
2018-03-11T09:42:09.749Z,93.50
2018-03-11T09:44:37.313Z,93.50
2018-03-11T09:47:04.893Z,93.70
2018-03-11T09:49:32.470Z,93.60
2018-03-11T09:52:00.053Z,93.70
2018-03-11T09:54:27.659Z,93.60
2018-03-11T09:56:56.037Z,93.70
2018-03-11T09:59:25.173Z,93.70
2018-03-11T10:01:52.770Z,94.00
2018-03-11T10:04:20.392Z,93.70
2018-03-11T10:06:47.982Z,93.60
2018-03-11T10:09:15.572Z,93.60
2018-03-11T10:11:43.178Z,93.40
2018-03-11T10:14:11.540Z,93.50
2018-03-11T10:16:39.130Z,93.50
2018-03-11T10:19:06.700Z,93.30
2018-03-11T10:21:34.301Z,93.30
2018-03-11T10:24:01.877Z,93.20
2018-03-11T10:26:29.507Z,93.10
2018-03-11T10:28:57.107Z,92.90
2018-03-11T10:31:24.727Z,92.80
2018-03-11T10:33:52.328Z,92.90
2018-03-11T10:36:19.914Z,92.90
2018-03-11T10:38:47.535Z,92.80
2018-03-11T10:41:15.125Z,92.90
2018-03-11T10:43:42.740Z,92.90
2018-03-11T10:46:11.139Z,92.90
2018-03-11T10:48:38.774Z,92.90
2018-03-11T10:51:06.351Z,92.70
2018-03-11T10:53:34.693Z,92.40
2018-03-11T10:56:02.270Z,92.40
2018-03-11T10:58:29.847Z,92.30
2018-03-11T11:00:57.448Z,92.10
2018-03-11T11:03:31.765Z,92.10
2018-03-11T11:05:59.333Z,91.70
2018-03-11T11:08:27.009Z,91.50
2018-03-11T11:10:55.344Z,91.40
2018-03-11T11:13:22.946Z,91.40
2018-03-11T11:15:50.547Z,91.00
2018-03-11T11:18:18.149Z,91.30
2018-03-11T11:20:46.508Z,90.90
2018-03-11T11:23:14.115Z,90.90
2018-03-11T11:25:41.795Z,90.80
2018-03-11T11:28:09.500Z,90.60
2018-03-11T11:30:37.105Z,90.90
2018-03-11T11:33:05.449Z,90.80
2018-03-11T11:35:33.127Z,90.80
2018-03-11T11:38:00.740Z,90.30
2018-03-11T11:40:29.435Z,90.60
2018-03-11T11:42:57.046Z,90.30
2018-03-11T11:45:24.648Z,90.20
2018-03-11T11:47:53.005Z,90.10
2018-03-11T11:50:20.608Z,90.10
2018-03-11T11:52:48.266Z,88.80
2018-03-11T11:55:16.622Z,89.50
2018-03-11T11:57:44.234Z,89.40
2018-03-11T12:00:12.455Z,87.90
2018-03-11T12:02:40.077Z,87.50
2018-03-11T12:05:07.672Z,87.50
2018-03-11T12:07:35.267Z,86.80
2018-03-11T12:10:02.839Z,87.90
2018-03-11T12:12:30.436Z,86.90
2018-03-11T12:17:30.931Z,86.60
2018-03-11T12:19:58.531Z,85.70
2018-03-11T12:22:26.137Z,86.20
2018-03-11T12:24:53.730Z,85.10
2018-03-11T12:27:21.320Z,85.20
2018-03-11T12:29:49.616Z,85.20
2018-03-11T12:32:17.964Z,85.70
2018-03-11T12:34:45.572Z,85.60
2018-03-11T12:37:13.168Z,86.10
2018-03-11T12:39:40.809Z,86.00
2018-03-11T12:42:08.404Z,85.40
2018-03-11T12:44:36.025Z,85.90
2018-03-11T12:47:03.600Z,85.10
2018-03-11T12:49:31.204Z,85.10
2018-03-11T12:51:58.821Z,83.40
2018-03-11T12:54:27.206Z,83.70
2018-03-11T12:56:54.801Z,83.70
2018-03-11T12:59:22.413Z,84.00
2018-03-11T13:01:50.821Z,83.50
2018-03-11T13:04:19.761Z,83.30
2018-03-11T13:06:47.359Z,83.40
2018-03-11T13:09:15.714Z,83.10
2018-03-11T13:11:43.314Z,83.10
2018-03-11T13:14:10.917Z,84.00
2018-03-11T13:16:38.623Z,83.60
2018-03-11T13:19:09.012Z,83.60
2018-03-11T13:21:36.620Z,83.90
2018-03-11T13:24:04.214Z,84.00
2018-03-11T13:26:31.860Z,83.30
2018-03-11T13:28:59.436Z,82.40
2018-03-11T13:31:27.805Z,82.00
2018-03-11T13:34:07.310Z,82.00
2018-03-11T13:36:34.929Z,81.30
2018-03-11T13:39:15.117Z,82.30
2018-03-11T13:41:42.710Z,82.20
2018-03-11T13:44:10.319Z,81.30
2018-03-11T13:46:49.759Z,81.30
2018-03-11T13:49:18.143Z,81.40
2018-03-11T13:51:58.356Z,80.50
2018-03-11T13:54:25.953Z,80.50
2018-03-11T13:57:06.172Z,80.40
2018-03-11T13:59:33.820Z,80.40
2018-03-11T14:02:01.399Z,79.90
2018-03-11T14:04:28.992Z,80.10
2018-03-11T14:06:57.364Z,79.30
2018-03-11T14:09:24.983Z,79.30
2018-03-11T14:11:52.580Z,79.70
2018-03-11T14:14:20.169Z,80.30
2018-03-11T14:16:48.534Z,80.30
2018-03-11T14:19:16.166Z,80.20
2018-03-11T14:21:43.757Z,79.70
2018-03-11T14:24:11.319Z,80.10
2018-03-11T14:26:38.892Z,79.90
2018-03-11T14:29:06.509Z,79.70
2018-03-11T14:31:34.131Z,79.90
2018-03-11T14:34:01.728Z,80.50
2018-03-11T14:36:29.328Z,79.20
2018-03-11T14:38:56.925Z,79.30
2018-03-11T14:41:24.514Z,78.40
2018-03-11T14:43:52.892Z,78.70
2018-03-11T14:46:21.266Z,77.40
2018-03-11T14:48:48.830Z,77.30
2018-03-11T14:51:16.419Z,76.40
2018-03-11T14:53:43.998Z,77.60
2018-03-11T14:56:11.599Z,76.70
2018-03-11T14:58:39.189Z,75.80
2018-03-11T15:01:06.768Z,76.50
2018-03-11T15:03:35.131Z,76.70
2018-03-11T15:06:02.755Z,76.60
2018-03-11T15:08:31.180Z,75.90
2018-03-11T15:10:58.843Z,75.90
2018-03-11T15:13:26.442Z,75.10
2018-03-11T15:15:54.037Z,74.70
2018-03-11T15:18:21.615Z,76.40
2018-03-11T15:20:49.970Z,75.90
2018-03-11T15:23:17.567Z,74.80
2018-03-11T15:25:45.182Z,73.90
2018-03-11T15:28:13.542Z,72.10
2018-03-11T15:30:41.136Z,72.80
2018-03-11T15:33:08.759Z,72.80
2018-03-11T15:35:36.367Z,73.00
2018-03-11T15:38:04.774Z,73.00
2018-03-11T15:40:32.589Z,73.30
2018-03-11T15:43:00.189Z,72.20
2018-03-11T15:45:27.777Z,73.90
2018-03-11T15:47:55.416Z,72.80
2018-03-11T15:50:23.026Z,74.90
2018-03-11T15:52:50.641Z,74.50
2018-03-11T15:55:19.071Z,76.20
2018-03-11T15:57:46.674Z,76.00
2018-03-11T16:00:15.044Z,76.40
2018-03-11T16:02:42.687Z,76.30
2018-03-11T16:05:10.310Z,77.10
2018-03-11T16:07:38.687Z,77.80
2018-03-11T16:10:07.072Z,78.20
2018-03-11T16:12:34.668Z,78.10
2018-03-11T16:15:02.271Z,78.10
2018-03-11T16:17:29.882Z,78.80
2018-03-11T16:19:57.555Z,79.40
2018-03-11T16:22:25.133Z,79.40
2018-03-11T16:24:52.709Z,80.30
2018-03-11T16:27:20.315Z,80.00
2018-03-11T16:29:47.919Z,80.90
2018-03-11T16:32:15.549Z,80.00
2018-03-11T16:34:43.907Z,76.30
2018-03-11T16:37:11.546Z,76.20
2018-03-11T16:39:39.162Z,75.10
2018-03-11T16:42:07.546Z,72.60
2018-03-11T16:44:35.926Z,71.70
2018-03-11T16:47:03.544Z,71.60
2018-03-11T16:49:31.124Z,72.10
2018-03-11T16:51:58.732Z,71.80
2018-03-11T16:54:27.102Z,73.90
2018-03-11T16:56:54.735Z,73.90
2018-03-11T16:59:22.302Z,75.10
2018-03-11T17:01:49.901Z,76.30
2018-03-11T17:04:17.473Z,77.20
2018-03-11T17:06:45.071Z,77.70
2018-03-11T17:09:12.671Z,78.70
2018-03-11T17:11:40.251Z,79.60
2018-03-11T17:14:07.837Z,80.00
2018-03-11T17:16:36.184Z,80.50
2018-03-11T17:19:03.855Z,80.40
2018-03-11T17:21:31.428Z,80.70
2018-03-11T17:23:59.017Z,81.00
2018-03-11T17:26:27.387Z,81.70
2018-03-11T17:28:57.752Z,81.60
2018-03-11T17:31:25.320Z,81.70
2018-03-11T17:33:52.928Z,82.60
2018-03-11T17:36:20.516Z,82.30
2018-03-11T17:38:48.136Z,83.00
2018-03-11T17:41:15.822Z,83.20
2018-03-11T17:43:43.485Z,83.80
2018-03-11T17:46:11.050Z,84.60
2018-03-11T17:48:38.679Z,84.50
2018-03-11T17:51:06.275Z,84.70
2018-03-11T17:53:33.858Z,85.10
2018-03-11T17:56:01.456Z,85.50
2018-03-11T17:58:29.851Z,86.40
2018-03-11T18:00:57.418Z,86.30
2018-03-11T18:03:25.044Z,86.80
2018-03-11T18:05:52.672Z,86.90
2018-03-11T18:08:20.263Z,87.20
2018-03-11T18:10:47.883Z,87.40
2018-03-11T18:13:15.466Z,87.90
2018-03-11T18:15:43.078Z,88.10
2018-03-11T18:18:10.715Z,88.00
2018-03-11T18:20:38.338Z,88.30
2018-03-11T18:23:06.014Z,88.50
2018-03-11T18:25:33.614Z,88.80
2018-03-11T18:28:01.203Z,89.00
2018-03-11T18:30:28.798Z,89.20
2018-03-11T18:32:57.172Z,89.60
2018-03-11T18:35:25.538Z,89.80
2018-03-11T18:37:53.907Z,89.50
2018-03-11T18:40:21.483Z,89.70
2018-03-11T18:42:49.068Z,89.70
2018-03-11T18:45:17.409Z,90.10
2018-03-11T18:47:45.007Z,90.10
2018-03-11T18:50:13.367Z,90.20
2018-03-11T18:52:41.012Z,90.00
2018-03-11T18:55:08.628Z,90.20
2018-03-11T18:57:36.988Z,90.30
2018-03-11T19:00:04.586Z,90.30
2018-03-11T19:02:32.948Z,90.30
2018-03-11T19:05:01.294Z,90.40
2018-03-11T19:07:28.941Z,90.40
2018-03-11T19:09:56.521Z,90.50
2018-03-11T19:12:24.115Z,90.70
2018-03-11T19:14:51.705Z,90.80
2018-03-11T19:17:19.312Z,90.70
2018-03-11T19:19:46.883Z,90.80
2018-03-11T19:22:14.475Z,90.70
2018-03-11T19:24:42.064Z,90.70
2018-03-11T19:27:10.409Z,90.70
2018-03-11T19:29:38.076Z,90.60
2018-03-11T19:32:05.667Z,90.40
2018-03-11T19:34:33.299Z,90.40
2018-03-11T19:37:00.981Z,90.30
2018-03-11T19:39:28.588Z,90.30
2018-03-11T19:41:56.963Z,90.30
2018-03-11T19:44:25.337Z,90.40
2018-03-11T19:46:53.685Z,90.40
2018-03-11T19:49:21.274Z,90.40
2018-03-11T19:51:48.868Z,90.40
2018-03-11T19:54:16.486Z,90.70
2018-03-11T19:56:44.127Z,90.50
2018-03-11T19:59:11.722Z,90.50
2018-03-11T20:01:40.111Z,90.50
2018-03-11T20:04:07.688Z,90.50
2018-03-11T20:06:35.298Z,90.60
2018-03-11T20:09:02.873Z,90.50
2018-03-11T20:11:30.480Z,90.60
2018-03-11T20:13:58.903Z,90.70
2018-03-11T20:16:26.506Z,90.70
2018-03-11T20:18:54.479Z,90.70
2018-03-11T20:21:22.101Z,90.80
2018-03-11T20:23:49.683Z,90.60
2018-03-11T20:26:17.287Z,90.60
2018-03-11T20:28:44.862Z,90.70
2018-03-11T20:31:12.479Z,90.60
2018-03-11T20:33:40.079Z,90.60
2018-03-11T20:36:07.698Z,90.60
2018-03-11T20:38:35.309Z,90.50
2018-03-11T20:41:02.890Z,90.50
2018-03-11T20:43:30.486Z,90.50
2018-03-11T20:45:58.094Z,90.50
2018-03-11T20:48:25.690Z,90.60
2018-03-11T20:50:53.294Z,90.60
2018-03-11T20:53:20.895Z,90.60
2018-03-11T20:55:48.469Z,90.60
2018-03-11T20:58:16.095Z,90.60
2018-03-11T21:00:44.582Z,90.70
2018-03-11T21:03:12.159Z,90.70
2018-03-11T21:05:39.803Z,90.70
2018-03-11T21:08:07.401Z,90.80
2018-03-11T21:10:34.999Z,90.80
2018-03-11T21:13:03.465Z,90.90
2018-03-11T21:15:31.075Z,90.90
2018-03-11T21:17:58.696Z,90.90
2018-03-11T21:20:26.288Z,91.00
2018-03-11T21:22:54.638Z,91.10
2018-03-11T21:25:22.232Z,91.10
2018-03-11T21:27:49.890Z,91.10
2018-03-11T21:30:30.672Z,91.10
2018-03-11T21:32:58.265Z,91.20
2018-03-11T21:35:25.868Z,91.30
2018-03-11T21:37:53.453Z,91.30
2018-03-11T21:40:21.025Z,91.50
2018-03-11T21:42:49.418Z,91.50
2018-03-11T21:45:17.784Z,91.40
2018-03-11T21:47:45.403Z,91.40
2018-03-11T21:50:12.987Z,91.80
2018-03-11T21:52:40.587Z,91.60
2018-03-11T21:55:08.184Z,91.70
2018-03-11T21:57:36.712Z,91.60
2018-03-11T22:00:04.326Z,91.60
2018-03-11T22:02:32.711Z,91.60
2018-03-11T22:05:00.307Z,91.60
2018-03-11T22:07:27.919Z,91.60
2018-03-11T22:09:55.520Z,91.60
2018-03-11T22:12:23.114Z,91.70
2018-03-11T22:14:50.728Z,91.60
2018-03-11T22:17:19.175Z,91.70
2018-03-11T22:19:46.766Z,91.70
2018-03-11T22:22:14.367Z,91.80
2018-03-11T22:24:41.978Z,91.70
2018-03-11T22:27:09.560Z,91.70
2018-03-11T22:29:37.155Z,91.60
2018-03-11T22:32:05.158Z,91.60
2018-03-11T22:34:32.791Z,91.50
2018-03-11T22:37:00.409Z,91.40
2018-03-11T22:39:28.017Z,91.30
2018-03-11T22:41:56.365Z,91.00
2018-03-11T22:44:24.851Z,91.00
2018-03-11T22:46:52.414Z,91.00
2018-03-11T22:49:20.077Z,90.90
2018-03-11T22:51:47.651Z,90.80
2018-03-11T22:54:15.234Z,90.70
2018-03-11T22:56:43.606Z,90.70
2018-03-11T22:59:11.995Z,90.70
2018-03-11T23:01:39.581Z,90.70
2018-03-11T23:04:07.178Z,90.70
2018-03-11T23:06:34.779Z,90.70
2018-03-11T23:09:02.495Z,90.70
2018-03-11T23:11:30.153Z,90.70
2018-03-11T23:13:58.509Z,90.90
2018-03-11T23:16:26.131Z,90.80
2018-03-11T23:19:05.501Z,91.30
2018-03-11T23:21:33.865Z,91.20
2018-03-11T23:24:01.430Z,91.20
2018-03-11T23:26:29.066Z,91.30
2018-03-11T23:28:56.645Z,91.40
2018-03-11T23:31:24.243Z,91.90
2018-03-11T23:33:51.883Z,91.60
2018-03-11T23:36:19.480Z,91.70
2018-03-11T23:38:48.594Z,91.90
2018-03-11T23:41:17.008Z,92.00
2018-03-11T23:43:44.594Z,92.00
2018-03-11T23:46:12.195Z,92.00
2018-03-11T23:48:39.801Z,92.20
2018-03-11T23:51:07.385Z,92.20
2018-03-11T23:53:34.973Z,92.70
2018-03-11T23:56:02.557Z,93.00
2018-03-11T23:58:30.130Z,93.00
